Edwards Crossroads, North Carolina
Current Conditions -  °F | °C
As of 5:35 AM on Wednesday 22 Oct 2014 (Local Time) from KGEV Reporting Station
Clear Clear  
Wind Chill: 29°   Ceiling: Unl
Heat Index: 40°   Visibility: 10mi
Dew Point: 32°   Wind: 25mph
Humidity: 73%   Direction: 320°NW
Pressure: 29.99"   Gusts: 37mph
Location:  36.5212°N, 81.1574°W
Report Text: KGEV 220935Z AUTO 32022G32KT 10SM CLR 05/00 A2999 RMK AO2 T00450000
Loading
Personal Weather Stations






























Interactive Weather Map
Tropical Storm Tracking
New forecast layout! Learn more

10-Day Weather Forecast

Advertisements
Track Severe Weather on mobile